createdAt,value
2018-03-22T00:00:03.056Z,963.31
2018-03-22T00:01:03.068Z,963.31
2018-03-22T00:02:03.077Z,963.31
2018-03-22T00:03:03.089Z,963.32
2018-03-22T00:04:03.100Z,963.31
2018-03-22T00:05:03.111Z,963.28
2018-03-22T00:06:03.120Z,963.27
2018-03-22T00:07:03.132Z,963.26
2018-03-22T00:08:03.143Z,963.27
2018-03-22T00:09:03.152Z,963.21
2018-03-22T00:10:03.164Z,963.23
2018-03-22T00:11:03.176Z,963.23
2018-03-22T00:12:03.184Z,963.19
2018-03-22T00:13:03.195Z,963.22
2018-03-22T00:14:03.206Z,963.23
2018-03-22T00:15:03.218Z,963.22
2018-03-22T00:16:03.231Z,963.18
2018-03-22T00:17:03.239Z,963.2
2018-03-22T00:18:03.253Z,963.2
2018-03-22T00:19:03.261Z,963.18
2018-03-22T00:20:03.275Z,963.12
2018-03-22T00:21:03.282Z,963.16
2018-03-22T00:22:03.292Z,963.16
2018-03-22T00:23:03.303Z,963.12
2018-03-22T00:24:03.313Z,963.13
2018-03-22T00:25:03.328Z,963.07
2018-03-22T00:26:03.338Z,963.05
2018-03-22T00:27:03.346Z,963.04
2018-03-22T00:28:03.355Z,963.05
2018-03-22T00:29:03.366Z,963.04
2018-03-22T00:30:03.377Z,963.01
2018-03-22T00:31:03.387Z,963.02
2018-03-22T00:32:03.396Z,962.98
2018-03-22T00:33:03.407Z,962.95
2018-03-22T00:34:03.417Z,962.94
2018-03-22T00:35:03.439Z,962.89
2018-03-22T00:36:03.436Z,962.9
2018-03-22T00:37:03.446Z,962.87
2018-03-22T00:38:03.455Z,962.84
2018-03-22T00:39:03.472Z,962.79
2018-03-22T00:40:03.480Z,962.81
2018-03-22T00:41:03.488Z,962.75
2018-03-22T00:42:03.500Z,962.76
2018-03-22T00:43:03.511Z,962.73
2018-03-22T00:44:03.522Z,962.69
2018-03-22T00:45:03.534Z,962.68
2018-03-22T00:46:03.542Z,962.65
2018-03-22T00:47:03.552Z,962.68
2018-03-22T00:48:03.580Z,962.66
2018-03-22T00:49:03.573Z,962.65
2018-03-22T00:50:03.583Z,962.65
2018-03-22T00:51:03.594Z,962.63
2018-03-22T00:52:03.605Z,962.63
2018-03-22T00:53:03.617Z,962.62
2018-03-22T00:54:03.634Z,962.61
2018-03-22T00:55:03.673Z,962.62
2018-03-22T00:56:03.644Z,962.63
2018-03-22T00:57:03.658Z,962.6
2018-03-22T00:58:03.667Z,962.61
2018-03-22T00:59:03.720Z,962.63
2018-03-22T01:00:03.694Z,962.62
2018-03-22T01:01:03.698Z,962.62
2018-03-22T01:02:03.713Z,962.66
2018-03-22T01:03:03.724Z,962.64
2018-03-22T01:04:03.731Z,962.61
2018-03-22T01:05:03.743Z,962.59
2018-03-22T01:06:03.752Z,962.53
2018-03-22T01:07:03.762Z,962.55
2018-03-22T01:08:03.774Z,962.54
2018-03-22T01:09:03.786Z,962.53
2018-03-22T01:10:03.851Z,962.57
2018-03-22T01:11:03.810Z,962.51
2018-03-22T01:12:03.816Z,962.54
2018-03-22T01:13:03.827Z,962.51
2018-03-22T01:14:03.836Z,962.47
2018-03-22T01:15:03.847Z,962.42
2018-03-22T01:16:03.858Z,962.43
2018-03-22T01:17:03.868Z,962.38
2018-03-22T01:18:03.879Z,962.38
2018-03-22T01:19:03.890Z,962.41
2018-03-22T01:20:03.900Z,962.4
2018-03-22T01:21:03.912Z,962.36
2018-03-22T01:22:03.921Z,962.32
2018-03-22T01:23:03.951Z,962.3
2018-03-22T01:24:03.943Z,962.3
2018-03-22T01:25:03.955Z,962.27
2018-03-22T01:26:04.007Z,962.3
2018-03-22T01:27:03.975Z,962.27
2018-03-22T01:28:03.985Z,962.25
2018-03-22T01:29:03.995Z,962.27
2018-03-22T01:30:04.005Z,962.27
2018-03-22T01:31:04.016Z,962.21
2018-03-22T01:32:04.028Z,962.26
2018-03-22T01:33:04.037Z,962.18
2018-03-22T01:34:04.049Z,962.2
2018-03-22T01:35:04.059Z,962.18
2018-03-22T01:36:04.069Z,962.2
2018-03-22T01:37:04.078Z,962.2
2018-03-22T01:38:04.090Z,962.19
2018-03-22T01:39:04.100Z,962.21
2018-03-22T01:40:04.110Z,962.17
2018-03-22T01:41:04.119Z,962.11
2018-03-22T01:42:04.132Z,962.16
2018-03-22T01:43:04.141Z,962.14
2018-03-22T01:44:04.151Z,962.11
2018-03-22T01:45:04.161Z,962.11
2018-03-22T01:46:04.181Z,962.08
2018-03-22T01:47:04.181Z,962.06
2018-03-22T01:48:04.211Z,962.05
2018-03-22T01:49:04.203Z,962.08
2018-03-22T01:50:04.214Z,962.06
2018-03-22T01:51:04.223Z,962.06
2018-03-22T01:52:04.235Z,962.08
2018-03-22T01:53:04.243Z,962.06
2018-03-22T01:54:04.259Z,962.02
2018-03-22T01:55:04.263Z,962.02
2018-03-22T01:56:04.273Z,962.03
2018-03-22T01:57:04.285Z,962.03
2018-03-22T01:58:04.300Z,961.95
2018-03-22T01:59:04.305Z,961.96
2018-03-22T02:00:04.318Z,961.94
2018-03-22T02:01:04.325Z,961.94
2018-03-22T02:02:04.336Z,961.92
2018-03-22T02:03:04.398Z,961.93
2018-03-22T02:04:04.357Z,961.95
2018-03-22T02:05:04.367Z,961.94
2018-03-22T02:06:04.376Z,961.91
2018-03-22T02:07:04.388Z,961.91
2018-03-22T02:08:04.397Z,961.9
2018-03-22T02:09:04.412Z,961.86
2018-03-22T02:10:04.418Z,961.86
2018-03-22T02:11:04.427Z,961.86
2018-03-22T02:12:04.438Z,961.82
2018-03-22T02:13:04.445Z,961.85
2018-03-22T02:14:04.457Z,961.83
2018-03-22T02:15:04.467Z,961.76
2018-03-22T02:16:04.477Z,961.74
2018-03-22T02:17:04.488Z,961.73
2018-03-22T02:18:04.546Z,961.71
2018-03-22T02:19:04.507Z,961.69
2018-03-22T02:20:04.517Z,961.73
2018-03-22T02:21:04.528Z,961.73
2018-03-22T02:22:04.538Z,961.71
2018-03-22T02:23:04.549Z,961.74
2018-03-22T02:24:04.557Z,961.71
2018-03-22T02:25:04.566Z,961.69
2018-03-22T02:26:04.578Z,961.68
2018-03-22T02:27:04.588Z,961.66
2018-03-22T02:28:04.650Z,961.68
2018-03-22T02:29:04.607Z,961.62
2018-03-22T02:30:04.617Z,961.64
2018-03-22T02:31:04.627Z,961.63
2018-03-22T02:32:04.636Z,961.63
2018-03-22T02:33:04.698Z,961.63
2018-03-22T02:34:04.655Z,961.59
2018-03-22T02:35:04.665Z,961.61
2018-03-22T02:36:04.675Z,961.66
2018-03-22T02:37:04.687Z,961.61
2018-03-22T02:38:04.698Z,961.61
2018-03-22T02:39:04.707Z,961.62
2018-03-22T02:40:04.716Z,961.55
2018-03-22T02:41:04.725Z,961.56
2018-03-22T02:42:04.737Z,961.56
2018-03-22T02:43:04.747Z,961.56
2018-03-22T02:44:04.758Z,961.57
2018-03-22T02:45:04.768Z,961.57
2018-03-22T02:46:04.776Z,961.55
2018-03-22T02:47:04.788Z,961.52
2018-03-22T02:48:04.862Z,961.58
2018-03-22T02:49:04.805Z,961.55
2018-03-22T02:50:04.814Z,961.52
2018-03-22T02:51:04.834Z,961.52
2018-03-22T02:52:04.837Z,961.47
2018-03-22T02:53:04.848Z,961.51
2018-03-22T02:54:04.855Z,961.48
2018-03-22T02:55:04.866Z,961.48
2018-03-22T02:56:04.874Z,961.45
2018-03-22T02:57:04.884Z,961.47
2018-03-22T02:58:04.894Z,961.47
2018-03-22T02:59:04.909Z,961.52
2018-03-22T03:00:04.912Z,961.46
2018-03-22T03:01:04.927Z,961.45
2018-03-22T03:02:04.934Z,961.44
2018-03-22T03:03:04.943Z,961.39
2018-03-22T03:04:04.952Z,961.37
2018-03-22T03:05:04.967Z,961.35
2018-03-22T03:06:04.972Z,961.33
2018-03-22T03:07:04.987Z,961.31
2018-03-22T03:08:04.992Z,961.32
2018-03-22T03:09:05.069Z,961.29
2018-03-22T03:10:05.012Z,961.29
2018-03-22T03:11:05.021Z,961.26
2018-03-22T03:12:05.031Z,961.26
2018-03-22T03:13:05.040Z,961.29
2018-03-22T03:14:05.049Z,961.28
2018-03-22T03:15:05.063Z,961.24
2018-03-22T03:16:05.071Z,961.26
2018-03-22T03:17:05.080Z,961.27
2018-03-22T03:18:05.093Z,961.23
2018-03-22T03:19:05.099Z,961.24
2018-03-22T03:20:05.109Z,961.32
2018-03-22T03:21:05.118Z,961.26
2018-03-22T03:22:05.134Z,961.27
2018-03-22T03:23:05.142Z,961.29
2018-03-22T03:24:05.197Z,961.23
2018-03-22T03:25:05.159Z,961.24
2018-03-22T03:26:05.166Z,961.29
2018-03-22T03:27:05.180Z,961.27
2018-03-22T03:28:05.188Z,961.25
2018-03-22T03:29:05.198Z,961.27
2018-03-22T03:30:05.209Z,961.27
2018-03-22T03:31:05.221Z,961.23
2018-03-22T03:32:05.227Z,961.26
2018-03-22T03:33:05.236Z,961.22
2018-03-22T03:34:05.246Z,961.22
2018-03-22T03:35:05.256Z,961.2
2018-03-22T03:36:05.267Z,961.2
2018-03-22T03:37:05.274Z,961.17
2018-03-22T03:38:05.285Z,961.15
2018-03-22T03:39:05.345Z,961.14
2018-03-22T03:40:05.305Z,961.14
2018-03-22T03:41:05.316Z,961.11
2018-03-22T03:42:05.324Z,961.12
2018-03-22T03:43:05.337Z,961.08
2018-03-22T03:44:05.344Z,961.07
2018-03-22T03:45:05.357Z,961.07
2018-03-22T03:46:05.363Z,961.08
2018-03-22T03:47:05.374Z,961.06
2018-03-22T03:48:05.384Z,961.08
2018-03-22T03:49:05.393Z,961.01
2018-03-22T03:50:05.403Z,960.99
2018-03-22T03:51:05.412Z,960.93
2018-03-22T03:52:05.422Z,961
2018-03-22T03:53:05.433Z,960.98
2018-03-22T03:54:05.493Z,961.01
2018-03-22T03:55:05.455Z,960.98
2018-03-22T03:56:05.462Z,960.91
2018-03-22T03:57:05.471Z,960.9
2018-03-22T03:58:05.481Z,960.87
2018-03-22T03:59:05.490Z,960.88
2018-03-22T04:00:05.500Z,960.85
2018-03-22T04:01:05.509Z,960.88
2018-03-22T04:02:05.518Z,960.87
2018-03-22T04:03:05.529Z,960.86
2018-03-22T04:04:05.539Z,960.81
2018-03-22T04:05:05.549Z,960.86
2018-03-22T04:06:05.557Z,960.78
2018-03-22T04:07:05.566Z,960.79
2018-03-22T04:08:05.578Z,960.73
2018-03-22T04:09:05.591Z,960.74
2018-03-22T04:10:05.597Z,960.72
2018-03-22T04:11:05.655Z,960.74
2018-03-22T04:12:05.615Z,960.69
2018-03-22T04:13:05.624Z,960.66
2018-03-22T04:14:05.639Z,960.64
2018-03-22T04:15:05.645Z,960.62
2018-03-22T04:16:05.656Z,960.63
2018-03-22T04:17:05.662Z,960.58
2018-03-22T04:18:05.672Z,960.6
2018-03-22T04:19:05.683Z,960.6
2018-03-22T04:20:05.694Z,960.58
2018-03-22T04:21:05.702Z,960.49
2018-03-22T04:22:05.711Z,960.51
2018-03-22T04:23:05.722Z,960.52
2018-03-22T04:24:05.731Z,960.52
2018-03-22T04:25:05.739Z,960.52
2018-03-22T04:26:05.806Z,960.44
2018-03-22T04:27:05.760Z,960.44
2018-03-22T04:28:05.768Z,960.42
2018-03-22T04:29:05.788Z,960.4
2018-03-22T04:30:05.788Z,960.43
2018-03-22T04:31:05.847Z,960.43
2018-03-22T04:32:05.809Z,960.44
2018-03-22T04:33:05.818Z,960.46
2018-03-22T04:34:05.824Z,960.44
2018-03-22T04:35:05.834Z,960.51
2018-03-22T04:36:05.842Z,960.44
2018-03-22T04:37:05.856Z,960.45
2018-03-22T04:38:05.863Z,960.45
2018-03-22T04:39:05.872Z,960.41
2018-03-22T04:40:05.881Z,960.43
2018-03-22T04:41:05.940Z,960.37
2018-03-22T04:42:05.903Z,960.37
2018-03-22T04:43:05.909Z,960.34
2018-03-22T04:44:05.921Z,960.34
2018-03-22T04:45:05.928Z,960.29
2018-03-22T04:46:06.036Z,960.36
2018-03-22T04:47:05.947Z,960.37
2018-03-22T04:48:05.956Z,960.31
2018-03-22T04:49:05.966Z,960.31
2018-03-22T04:50:05.976Z,960.3
2018-03-22T04:51:05.987Z,960.29
2018-03-22T04:52:05.998Z,960.31
2018-03-22T04:53:06.014Z,960.28
2018-03-22T04:54:06.012Z,960.28
2018-03-22T04:55:06.022Z,960.29
2018-03-22T04:56:06.083Z,960.28
2018-03-22T04:57:06.044Z,960.31
2018-03-22T04:58:06.052Z,960.29
2018-03-22T04:59:06.064Z,960.33
2018-03-22T05:00:06.070Z,960.28
2018-03-22T05:01:06.080Z,960.29
2018-03-22T05:02:06.094Z,960.27
2018-03-22T05:03:06.099Z,960.28
2018-03-22T05:04:06.112Z,960.26
2018-03-22T05:05:06.119Z,960.26
2018-03-22T05:06:06.129Z,960.26
2018-03-22T05:07:06.139Z,960.25
2018-03-22T05:08:06.149Z,960.25
2018-03-22T05:09:06.158Z,960.21
2018-03-22T05:10:06.168Z,960.2
2018-03-22T05:11:06.178Z,960.18
2018-03-22T05:12:06.187Z,960.14
2018-03-22T05:13:06.197Z,960.14
2018-03-22T05:14:06.207Z,960.16
2018-03-22T05:15:06.216Z,960.21
2018-03-22T05:16:06.225Z,960.18
2018-03-22T05:17:06.236Z,960.19
2018-03-22T05:18:06.245Z,960.17
2018-03-22T05:19:06.255Z,960.18
2018-03-22T05:20:06.265Z,960.1
2018-03-22T05:21:06.275Z,960.13
2018-03-22T05:22:06.286Z,960.11
2018-03-22T05:23:06.294Z,960.12
2018-03-22T05:24:06.310Z,960.12
2018-03-22T05:25:06.348Z,960.09
2018-03-22T05:26:06.325Z,960.1
2018-03-22T05:27:06.334Z,960.09
2018-03-22T05:28:06.345Z,960.08
2018-03-22T05:29:06.355Z,960.04
2018-03-22T05:30:06.367Z,960.05
2018-03-22T05:31:06.373Z,960.05
2018-03-22T05:32:06.383Z,960.04
2018-03-22T05:33:06.393Z,960.03
2018-03-22T05:34:06.402Z,960.03
2018-03-22T05:35:06.413Z,960.03
2018-03-22T05:36:06.422Z,960.04
2018-03-22T05:37:06.442Z,960.01
2018-03-22T05:38:06.445Z,960.04
2018-03-22T05:39:06.457Z,960.01
2018-03-22T05:40:06.463Z,960
2018-03-22T05:41:06.472Z,960
2018-03-22T05:42:06.488Z,960
2018-03-22T05:43:06.492Z,959.98
2018-03-22T05:44:06.501Z,960.03
2018-03-22T05:45:06.511Z,960
2018-03-22T05:46:06.522Z,959.97
2018-03-22T05:47:06.536Z,960.01
2018-03-22T05:48:06.540Z,959.99
2018-03-22T05:49:06.551Z,959.97
2018-03-22T05:50:06.563Z,959.96
2018-03-22T05:51:06.574Z,959.96
2018-03-22T05:52:06.579Z,959.97
2018-03-22T05:53:06.591Z,959.98
2018-03-22T05:54:06.600Z,959.97
2018-03-22T05:55:06.611Z,959.94
2018-03-22T05:56:06.619Z,960
2018-03-22T05:57:06.630Z,959.95
2018-03-22T05:58:06.640Z,959.91
2018-03-22T05:59:06.650Z,959.86
2018-03-22T06:00:06.664Z,959.89
2018-03-22T06:01:06.670Z,959.9
2018-03-22T06:02:06.685Z,959.88
2018-03-22T06:03:06.696Z,959.87
2018-03-22T06:04:06.723Z,959.91
2018-03-22T06:05:06.711Z,959.88
2018-03-22T06:06:06.719Z,959.9
2018-03-22T06:07:06.733Z,959.91
2018-03-22T06:08:06.739Z,959.81
2018-03-22T06:09:06.750Z,959.84
2018-03-22T06:10:06.758Z,959.86
2018-03-22T06:11:06.788Z,959.83
2018-03-22T06:12:06.782Z,959.82
2018-03-22T06:13:06.791Z,959.82
2018-03-22T06:14:06.798Z,959.83
2018-03-22T06:15:06.810Z,959.83
2018-03-22T06:16:06.820Z,959.8
2018-03-22T06:17:06.830Z,959.84
2018-03-22T06:18:06.860Z,959.86
2018-03-22T06:19:06.855Z,959.77
2018-03-22T06:20:06.860Z,959.81
2018-03-22T06:21:06.870Z,959.77
2018-03-22T06:22:06.880Z,959.77
2018-03-22T06:23:06.891Z,959.78
2018-03-22T06:24:06.903Z,959.81
2018-03-22T06:25:06.921Z,959.77
2018-03-22T06:26:06.920Z,959.79
2018-03-22T06:27:06.932Z,959.79
2018-03-22T06:28:06.942Z,959.82
2018-03-22T06:29:06.951Z,959.82
2018-03-22T06:30:06.965Z,959.8
2018-03-22T06:31:06.975Z,959.79
2018-03-22T06:32:06.989Z,959.83
2018-03-22T06:33:06.992Z,959.84
2018-03-22T06:34:07.002Z,959.86
2018-03-22T06:35:07.013Z,959.83
2018-03-22T06:36:07.022Z,959.88
2018-03-22T06:37:07.034Z,959.89
2018-03-22T06:38:07.044Z,959.9
2018-03-22T06:39:07.055Z,959.86
2018-03-22T06:40:07.105Z,959.88
2018-03-22T06:41:07.074Z,959.84
2018-03-22T06:42:07.084Z,959.82
2018-03-22T06:43:07.300Z,959.85
2018-03-22T06:44:07.106Z,959.86
2018-03-22T06:45:07.117Z,959.86
2018-03-22T06:46:07.137Z,959.86
2018-03-22T06:47:07.137Z,959.87
2018-03-22T06:48:07.148Z,959.9
2018-03-22T06:49:07.159Z,959.88
2018-03-22T06:50:07.174Z,959.88
2018-03-22T06:51:07.180Z,959.87
2018-03-22T06:52:07.192Z,959.88
2018-03-22T06:53:07.201Z,959.84
2018-03-22T06:54:07.211Z,959.84
2018-03-22T06:55:07.222Z,959.86
2018-03-22T06:56:07.232Z,959.84
2018-03-22T06:57:07.244Z,959.81
2018-03-22T06:58:07.254Z,959.82
2018-03-22T06:59:07.296Z,959.82
2018-03-22T07:00:07.280Z,959.85
2018-03-22T07:01:07.287Z,959.78
2018-03-22T07:02:07.298Z,959.82
2018-03-22T07:03:07.308Z,959.81
2018-03-22T07:04:07.319Z,959.81
2018-03-22T07:05:07.329Z,959.76
2018-03-22T07:06:07.345Z,959.78
2018-03-22T07:07:07.352Z,959.75
2018-03-22T07:08:07.363Z,959.73
2018-03-22T07:09:07.375Z,959.75
2018-03-22T07:10:07.385Z,959.71
2018-03-22T07:11:07.396Z,959.7
2018-03-22T07:12:07.408Z,959.66
2018-03-22T07:13:07.418Z,959.71
2018-03-22T07:14:07.427Z,959.66
2018-03-22T07:15:07.439Z,959.68
2018-03-22T07:16:07.450Z,959.68
2018-03-22T07:17:07.466Z,959.63
2018-03-22T07:18:07.476Z,959.63
2018-03-22T07:19:07.483Z,959.57
2018-03-22T07:20:07.493Z,959.52
2018-03-22T07:21:07.505Z,959.52
2018-03-22T07:22:07.516Z,959.47
2018-03-22T07:23:07.528Z,959.49
2018-03-22T07:24:07.545Z,959.54
2018-03-22T07:25:07.555Z,959.47
2018-03-22T07:26:07.563Z,959.51
2018-03-22T07:27:07.574Z,959.49
2018-03-22T07:28:07.585Z,959.5
2018-03-22T07:29:07.800Z,959.46
2018-03-22T07:30:07.608Z,959.54
2018-03-22T07:31:07.621Z,959.5
2018-03-22T07:32:07.631Z,959.49
2018-03-22T07:33:07.644Z,959.51
2018-03-22T07:34:07.654Z,959.41
2018-03-22T07:35:07.670Z,959.43
2018-03-22T07:36:07.680Z,959.43
2018-03-22T07:37:07.691Z,959.42
2018-03-22T07:38:07.702Z,959.44
2018-03-22T07:39:07.714Z,959.45
2018-03-22T07:40:07.727Z,959.45
2018-03-22T07:41:07.737Z,959.46
2018-03-22T07:42:07.753Z,959.47
2018-03-22T07:43:07.762Z,959.44
2018-03-22T07:44:07.773Z,959.45
2018-03-22T07:45:07.790Z,959.49
2018-03-22T07:46:07.797Z,959.47
2018-03-22T07:47:07.809Z,959.47
2018-03-22T07:48:07.822Z,959.47
2018-03-22T07:49:07.832Z,959.47
2018-03-22T07:50:07.846Z,959.48
2018-03-22T07:51:07.855Z,959.44
2018-03-22T07:52:07.870Z,959.43
2018-03-22T07:53:07.880Z,959.42
2018-03-22T07:54:07.898Z,959.42
2018-03-22T07:55:07.906Z,959.35
2018-03-22T07:56:07.916Z,959.36
2018-03-22T07:57:07.938Z,959.37
2018-03-22T07:58:07.943Z,959.36
2018-03-22T07:59:07.956Z,959.33
2018-03-22T08:00:07.969Z,959.3
2018-03-22T08:01:07.981Z,959.27
2018-03-22T08:02:07.994Z,959.35
2018-03-22T08:03:08.019Z,959.24
2018-03-22T08:04:08.021Z,959.32
2018-03-22T08:05:08.032Z,959.29
2018-03-22T08:06:08.048Z,959.25
2018-03-22T08:07:08.058Z,959.25
2018-03-22T08:08:08.069Z,959.21
2018-03-22T08:09:08.083Z,959.17
2018-03-22T08:10:08.099Z,959.19
2018-03-22T08:11:08.108Z,959.21
2018-03-22T08:12:08.121Z,959.22
2018-03-22T08:13:08.136Z,959.15
2018-03-22T08:14:08.148Z,959.15
2018-03-22T08:15:08.160Z,959.17
2018-03-22T08:16:08.174Z,959.21
2018-03-22T08:17:08.187Z,959.17
2018-03-22T08:18:08.201Z,959.17
2018-03-22T08:19:08.211Z,959.21
2018-03-22T08:20:08.226Z,959.2
2018-03-22T08:21:08.239Z,959.23
2018-03-22T08:22:08.251Z,959.24
2018-03-22T08:23:08.265Z,959.22
2018-03-22T08:24:08.279Z,959.21
2018-03-22T08:25:08.293Z,959.21
2018-03-22T08:26:08.305Z,959.19
2018-03-22T08:27:08.319Z,959.18
2018-03-22T08:28:08.332Z,959.22
2018-03-22T08:29:08.346Z,959.15
2018-03-22T08:30:08.359Z,959.16
2018-03-22T08:31:08.372Z,959.15
2018-03-22T08:32:08.389Z,959.17
2018-03-22T08:33:08.421Z,959.19
2018-03-22T08:34:08.416Z,959.2
2018-03-22T08:35:08.427Z,959.16
2018-03-22T08:36:08.442Z,959.15
2018-03-22T08:37:08.457Z,959.19
2018-03-22T08:38:08.474Z,959.15
2018-03-22T08:39:08.485Z,959.09
2018-03-22T08:40:08.505Z,959.1
2018-03-22T08:41:08.536Z,959.12
2018-03-22T08:42:08.528Z,959.1
2018-03-22T08:43:08.546Z,959.08
2018-03-22T08:44:08.556Z,959.1
2018-03-22T08:45:08.570Z,959.11
2018-03-22T08:46:08.584Z,959.06
2018-03-22T08:47:08.598Z,959.08
2018-03-22T08:48:08.612Z,959.04
2018-03-22T08:49:08.627Z,959.05
2018-03-22T08:50:08.642Z,959.11
2018-03-22T08:51:08.656Z,959.09
2018-03-22T08:52:08.671Z,959.09
2018-03-22T08:53:08.685Z,959.11
2018-03-22T08:54:08.700Z,959.1
2018-03-22T08:55:08.714Z,959.07
2018-03-22T08:56:08.735Z,959.03
2018-03-22T08:57:08.742Z,959.05
2018-03-22T08:58:08.754Z,959.03
2018-03-22T08:59:08.769Z,959.03
2018-03-22T09:00:08.785Z,959.03
2018-03-22T09:01:08.800Z,959.05
2018-03-22T09:02:08.816Z,959.09
2018-03-22T09:03:08.831Z,959.09
2018-03-22T09:04:08.845Z,959.1
2018-03-22T09:05:08.860Z,959.12
2018-03-22T09:06:08.873Z,959.1
2018-03-22T09:07:08.890Z,959.09
2018-03-22T09:08:08.908Z,959.06
2018-03-22T09:09:08.922Z,959.08
2018-03-22T09:10:08.934Z,959.1
2018-03-22T09:11:08.947Z,959.05
2018-03-22T09:12:08.964Z,959.07
2018-03-22T09:13:08.979Z,959.05
2018-03-22T09:14:09.050Z,959.05
2018-03-22T09:15:09.007Z,959.02
2018-03-22T09:16:09.071Z,958.96
2018-03-22T09:17:09.036Z,958.95
2018-03-22T09:18:09.051Z,958.91
2018-03-22T09:19:09.067Z,958.87
2018-03-22T09:20:09.082Z,958.88
2018-03-22T09:21:09.100Z,958.85
2018-03-22T09:22:09.113Z,958.8
2018-03-22T09:23:09.128Z,958.82
2018-03-22T09:24:09.146Z,958.83
2018-03-22T09:25:09.160Z,958.74
2018-03-22T09:26:09.176Z,958.73
2018-03-22T09:27:09.190Z,958.73
2018-03-22T09:28:09.206Z,958.76
2018-03-22T09:29:09.249Z,958.78
2018-03-22T09:30:09.238Z,958.76
2018-03-22T09:31:09.308Z,958.71
2018-03-22T09:32:09.269Z,958.74
2018-03-22T09:33:09.284Z,958.74
2018-03-22T09:34:09.300Z,958.68
2018-03-22T09:35:09.314Z,958.67
2018-03-22T09:36:09.330Z,958.7
2018-03-22T09:37:09.346Z,958.69
2018-03-22T09:38:09.361Z,958.66
2018-03-22T09:39:09.375Z,958.64
2018-03-22T09:40:09.391Z,958.6
2018-03-22T09:41:09.410Z,958.57
2018-03-22T09:42:09.420Z,958.58
2018-03-22T09:43:09.437Z,958.62
2018-03-22T09:44:09.453Z,958.66
2018-03-22T09:45:09.474Z,958.61
2018-03-22T09:46:09.785Z,958.62
2018-03-22T09:47:09.500Z,958.58
2018-03-22T09:48:09.576Z,958.59
2018-03-22T09:49:09.532Z,958.57
2018-03-22T09:50:09.547Z,958.57
2018-03-22T09:51:09.563Z,958.55
2018-03-22T09:52:09.582Z,958.53
2018-03-22T09:53:09.611Z,958.5
2018-03-22T09:54:09.611Z,958.48
2018-03-22T09:55:09.629Z,958.5
2018-03-22T09:56:09.646Z,958.46
2018-03-22T09:57:09.661Z,958.52
2018-03-22T09:58:09.681Z,958.49
2018-03-22T09:59:09.696Z,958.49
2018-03-22T10:00:09.712Z,958.45
2018-03-22T10:01:09.781Z,958.44
2018-03-22T10:02:09.749Z,958.41
2018-03-22T10:03:09.767Z,958.39
2018-03-22T10:04:09.783Z,958.39
2018-03-22T10:05:09.803Z,958.42
2018-03-22T10:06:09.821Z,958.37
2018-03-22T10:07:09.839Z,958.36
2018-03-22T10:08:09.864Z,958.38
2018-03-22T10:09:09.874Z,958.37
2018-03-22T10:10:09.895Z,958.36
2018-03-22T10:11:09.971Z,958.32
2018-03-22T10:12:09.934Z,958.32
2018-03-22T10:13:09.955Z,958.25
2018-03-22T10:14:09.974Z,958.24
2018-03-22T10:15:09.996Z,958.28
2018-03-22T10:16:10.013Z,958.25
2018-03-22T10:17:10.034Z,958.22
2018-03-22T10:18:10.053Z,958.22
2018-03-22T10:19:10.081Z,958.21
2018-03-22T10:20:10.091Z,958.25
2018-03-22T10:21:10.112Z,958.12
2018-03-22T10:22:10.133Z,958.09
2018-03-22T10:23:10.179Z,958.07
2018-03-22T10:24:10.179Z,958.12
2018-03-22T10:25:10.199Z,958.15
2018-03-22T10:26:10.272Z,958.12
2018-03-22T10:27:10.246Z,958.22
2018-03-22T10:28:10.268Z,958.09
2018-03-22T10:29:10.292Z,958.09
2018-03-22T10:30:10.318Z,958.12
2018-03-22T10:31:10.336Z,958.05
2018-03-22T10:32:10.363Z,958.11
2018-03-22T10:33:10.381Z,958.02
2018-03-22T10:34:10.404Z,957.97
2018-03-22T10:35:10.434Z,957.98
2018-03-22T10:36:10.450Z,957.94
2018-03-22T10:37:10.471Z,958
2018-03-22T10:38:10.500Z,957.94
2018-03-22T10:39:10.523Z,957.89
2018-03-22T10:40:10.539Z,957.84
2018-03-22T10:41:10.609Z,957.82
2018-03-22T10:42:10.583Z,957.8
2018-03-22T10:43:10.607Z,957.85
2018-03-22T10:44:10.625Z,957.84
2018-03-22T10:45:10.648Z,957.82
2018-03-22T10:46:10.685Z,957.81
2018-03-22T10:47:10.693Z,957.77
2018-03-22T10:48:10.713Z,957.74
2018-03-22T10:49:10.735Z,957.73
2018-03-22T10:50:10.759Z,957.75
2018-03-22T10:51:10.779Z,957.82
2018-03-22T10:52:10.801Z,957.84
2018-03-22T10:53:10.824Z,957.79
2018-03-22T10:54:10.846Z,957.83
2018-03-22T10:55:10.868Z,957.74
2018-03-22T10:56:10.940Z,957.67
2018-03-22T10:57:10.915Z,957.7
2018-03-22T10:58:10.939Z,957.59
2018-03-22T10:59:10.963Z,957.56
2018-03-22T11:00:10.997Z,957.55
2018-03-22T11:01:11.008Z,957.59
2018-03-22T11:02:11.032Z,957.61
2018-03-22T11:03:11.060Z,957.56
2018-03-22T11:04:11.081Z,957.55
2018-03-22T11:05:11.103Z,957.61
2018-03-22T11:06:11.127Z,957.59
2018-03-22T11:07:11.152Z,957.55
2018-03-22T11:08:11.178Z,957.58
2018-03-22T11:09:11.203Z,957.57
2018-03-22T11:10:11.225Z,957.49
2018-03-22T11:11:11.299Z,957.46
2018-03-22T11:12:11.276Z,957.4
2018-03-22T11:13:11.301Z,957.5
2018-03-22T11:14:11.325Z,957.42
2018-03-22T11:15:11.350Z,957.43
2018-03-22T11:16:11.476Z,957.35
2018-03-22T11:17:11.412Z,957.37
2018-03-22T11:18:11.423Z,957.33
2018-03-22T11:19:11.447Z,957.33
2018-03-22T11:20:11.471Z,957.34
2018-03-22T11:21:11.493Z,957.32
2018-03-22T11:22:11.517Z,957.29
2018-03-22T11:23:11.539Z,957.24
2018-03-22T11:24:11.561Z,957.23
2018-03-22T11:25:11.584Z,957.22
2018-03-22T11:26:11.659Z,957.24
2018-03-22T11:27:11.629Z,957.19
2018-03-22T11:28:11.648Z,957.18
2018-03-22T11:29:11.670Z,957.14
2018-03-22T11:30:11.691Z,957.08
2018-03-22T11:31:11.711Z,957.1
2018-03-22T11:32:11.731Z,957.07
2018-03-22T11:33:11.753Z,957.01
2018-03-22T11:34:11.774Z,957.03
2018-03-22T11:35:11.794Z,957.02
2018-03-22T11:36:11.913Z,956.99
2018-03-22T11:37:11.833Z,957
2018-03-22T11:38:11.853Z,957.05
2018-03-22T11:39:11.871Z,957.02
2018-03-22T11:40:11.913Z,956.95
2018-03-22T11:41:11.962Z,956.94
2018-03-22T11:42:11.934Z,957
2018-03-22T11:43:11.950Z,957.01
2018-03-22T11:44:11.971Z,957.06
2018-03-22T11:45:11.991Z,957.05
2018-03-22T11:46:12.060Z,957.06
2018-03-22T11:47:12.030Z,957.08
2018-03-22T11:48:12.053Z,957.05
2018-03-22T11:49:12.078Z,956.98
2018-03-22T11:50:12.094Z,956.96
2018-03-22T11:51:12.115Z,956.95
2018-03-22T11:52:12.137Z,957.06
2018-03-22T11:53:12.160Z,957.07
2018-03-22T11:54:12.182Z,957
2018-03-22T11:55:12.211Z,956.94
2018-03-22T11:56:12.278Z,956.81
2018-03-22T11:57:12.261Z,956.87
2018-03-22T11:58:12.272Z,956.98
2018-03-22T11:59:12.295Z,956.99
2018-03-22T12:00:12.321Z,956.93
2018-03-22T12:01:12.344Z,956.94
2018-03-22T12:02:12.368Z,956.94
2018-03-22T12:03:12.416Z,956.79
2018-03-22T12:04:12.418Z,956.72
2018-03-22T12:05:12.489Z,956.72
2018-03-22T12:06:12.464Z,956.66
2018-03-22T12:07:12.490Z,956.63
2018-03-22T12:08:12.516Z,956.58
2018-03-22T12:09:12.542Z,956.49
2018-03-22T12:10:12.564Z,956.46
2018-03-22T12:11:12.640Z,956.38
2018-03-22T12:12:12.614Z,956.35
2018-03-22T12:13:12.644Z,956.31
2018-03-22T12:14:12.658Z,956.37
2018-03-22T12:15:12.682Z,956.37
2018-03-22T12:16:12.705Z,956.47
2018-03-22T12:17:12.727Z,956.4
2018-03-22T12:18:12.750Z,956.45
2018-03-22T12:19:12.772Z,956.35
2018-03-22T12:20:12.796Z,956.31
2018-03-22T12:21:12.819Z,956.26
2018-03-22T12:22:12.842Z,956.23
2018-03-22T12:23:12.863Z,956.28
2018-03-22T12:24:12.887Z,956.25
2018-03-22T12:25:12.908Z,956.2
2018-03-22T12:26:12.961Z,956.21
2018-03-22T12:27:12.953Z,956.19
2018-03-22T12:28:12.981Z,956.14
2018-03-22T12:29:12.998Z,956.13
2018-03-22T12:30:13.020Z,956.12
2018-03-22T12:31:13.041Z,956.05